This is the latest recevied weather packets stored in our database for station/object EA6AMR-10. If no packets are shown the sender has not sent any weather packets the latest 10 day(s).
| Time | Temp. | Humidity | Pressure | Rain* | Wind** | Luminosity | Snow |
|---|---|---|---|---|---|---|---|
| 1777148091 | 17.22° C | 45% | 1019 hPa | - | - | - | - |
| 1777148060 | 17.22° C | 45% | 1019 hPa | - | - | - | - |
| 1777147160 | 17.22° C | 45% | 1019.1 hPa | - | - | - | - |
| 1777146260 | 17.22° C | 45% | 1019 hPa | - | - | - | - |
| 1777145360 | 17.78° C | 45% | 1018.9 hPa | - | - | - | - |
| 1777144459 | 17.78° C | 45% | 1018.7 hPa | - | - | - | - |
| 1777143559 | 18.33° C | 45% | 1018.5 hPa | - | - | - | - |
| 1777142659 | 18.89° C | 44% | 1018.3 hPa | - | - | - | - |
| 1777141759 | 19.44° C | 44% | 1018.1 hPa | - | - | - | - |
| 1777140859 | 21.11° C | 44% | 1017.8 hPa | - | - | - | - |
| 1777139958 | 21.67° C | 44% | 1017.7 hPa | - | - | - | - |
| 1777139058 | 22.78° C | 43% | 1017.6 hPa | - | - | - | - |
| 1777138158 | 23.33° C | 43% | 1017.5 hPa | - | - | - | - |
| 1777137258 | 23.89° C | 42% | 1017.4 hPa | - | - | - | - |
| 1777136395 | 23.89° C | 42% | 1017.3 hPa | - | - | - | - |
| 1777136358 | 23.89° C | 42% | 1017.3 hPa | - | - | - | - |
| 1777135457 | 24.44° C | 42% | 1017.2 hPa | - | - | - | - |
| 1777134557 | 25° C | 42% | 1017.1 hPa | - | - | - | - |
| 1777133657 | 25.56° C | 41% | 1017.1 hPa | - | - | - | - |
| 1777132757 | 25.56° C | 41% | 1017.1 hPa | - | - | - | - |
| 1777131857 | 25.56° C | 42% | 1017.1 hPa | - | - | - | - |
| 1777130956 | 25.56° C | 41% | 1017.2 hPa | - | - | - | - |
| 1777130056 | 25.56° C | 42% | 1017.3 hPa | - | - | - | - |
| 1777129156 | 26.11° C | 42% | 1017.4 hPa | - | - | - | - |
| 1777128255 | 25.56° C | 42% | 1017.6 hPa | - | - | - | - |
* Rain since midnight (hover to see other rain measurements)
** Current wind speed in m/s (hover to see current wind gust speed)